sensor_id;sensor_type;location;lat;lon;timestamp;P1;durP1;ratioP1;P2;durP2;ratioP2
24521;SDS011;12680;57.804;12.190;2023-11-22T00:01:06;2.30;;;1.77;;
24521;SDS011;12680;57.804;12.190;2023-11-22T00:03:33;2.50;;;1.80;;
24521;SDS011;12680;57.804;12.190;2023-11-22T00:06:00;2.35;;;1.90;;
24521;SDS011;12680;57.804;12.190;2023-11-22T00:08:30;2.15;;;1.73;;
24521;SDS011;12680;57.804;12.190;2023-11-22T00:10:57;2.80;;;1.90;;
24521;SDS011;12680;57.804;12.190;2023-11-22T00:13:24;2.70;;;1.85;;
24521;SDS011;12680;57.804;12.190;2023-11-22T00:15:52;2.10;;;1.90;;
24521;SDS011;12680;57.804;12.190;2023-11-22T00:18:18;2.25;;;1.80;;
24521;SDS011;12680;57.804;12.190;2023-11-22T00:20:45;2.80;;;1.80;;
24521;SDS011;12680;57.804;12.190;2023-11-22T00:23:13;3.58;;;2.40;;
24521;SDS011;12680;57.804;12.190;2023-11-22T00:25:40;3.28;;;1.83;;
24521;SDS011;12680;57.804;12.190;2023-11-22T00:28:07;2.65;;;1.90;;
24521;SDS011;12680;57.804;12.190;2023-11-22T00:30:34;2.80;;;2.03;;
24521;SDS011;12680;57.804;12.190;2023-11-22T00:33:01;3.75;;;1.63;;
24521;SDS011;12680;57.804;12.190;2023-11-22T00:35:28;2.85;;;1.70;;
24521;SDS011;12680;57.804;12.190;2023-11-22T00:37:56;3.15;;;1.95;;
24521;SDS011;12680;57.804;12.190;2023-11-22T00:40:24;3.00;;;2.03;;
24521;SDS011;12680;57.804;12.190;2023-11-22T00:42:51;2.20;;;1.80;;
24521;SDS011;12680;57.804;12.190;2023-11-22T00:45:18;4.30;;;1.58;;
24521;SDS011;12680;57.804;12.190;2023-11-22T00:47:45;2.40;;;1.90;;
24521;SDS011;12680;57.804;12.190;2023-11-22T00:50:12;3.30;;;1.83;;
24521;SDS011;12680;57.804;12.190;2023-11-22T00:52:39;2.65;;;1.88;;
24521;SDS011;12680;57.804;12.190;2023-11-22T00:55:10;4.43;;;1.88;;
24521;SDS011;12680;57.804;12.190;2023-11-22T00:57:37;2.38;;;1.77;;
24521;SDS011;12680;57.804;12.190;2023-11-22T01:00:05;3.13;;;1.90;;
24521;SDS011;12680;57.804;12.190;2023-11-22T01:02:35;1.65;;;1.55;;
24521;SDS011;12680;57.804;12.190;2023-11-22T01:05:07;3.65;;;1.60;;
24521;SDS011;12680;57.804;12.190;2023-11-22T01:07:38;2.08;;;1.67;;
24521;SDS011;12680;57.804;12.190;2023-11-22T01:10:05;1.60;;;1.27;;
24521;SDS011;12680;57.804;12.190;2023-11-22T01:12:32;1.75;;;1.65;;
24521;SDS011;12680;57.804;12.190;2023-11-22T01:14:59;2.50;;;1.52;;
24521;SDS011;12680;57.804;12.190;2023-11-22T01:17:26;3.20;;;1.63;;
24521;SDS011;12680;57.804;12.190;2023-11-22T01:19:54;3.72;;;1.70;;
24521;SDS011;12680;57.804;12.190;2023-11-22T01:22:20;2.00;;;1.73;;
24521;SDS011;12680;57.804;12.190;2023-11-22T01:24:47;2.28;;;1.80;;
24521;SDS011;12680;57.804;12.190;2023-11-22T01:27:15;1.65;;;1.33;;
24521;SDS011;12680;57.804;12.190;2023-11-22T01:29:41;2.53;;;1.60;;
24521;SDS011;12680;57.804;12.190;2023-11-22T01:32:08;1.83;;;1.27;;
24521;SDS011;12680;57.804;12.190;2023-11-22T01:34:35;1.98;;;1.75;;
24521;SDS011;12680;57.804;12.190;2023-11-22T01:37:02;2.50;;;1.80;;
24521;SDS011;12680;57.804;12.190;2023-11-22T01:39:29;3.05;;;1.90;;
24521;SDS011;12680;57.804;12.190;2023-11-22T01:41:57;2.40;;;1.70;;
24521;SDS011;12680;57.804;12.190;2023-11-22T01:44:23;2.05;;;1.77;;
24521;SDS011;12680;57.804;12.190;2023-11-22T01:46:53;2.65;;;1.90;;
24521;SDS011;12680;57.804;12.190;2023-11-22T01:49:20;2.13;;;1.75;;
24521;SDS011;12680;57.804;12.190;2023-11-22T01:51:47;4.05;;;1.98;;
24521;SDS011;12680;57.804;12.190;2023-11-22T01:54:15;4.50;;;2.08;;
24521;SDS011;12680;57.804;12.190;2023-11-22T01:56:44;2.13;;;1.63;;
24521;SDS011;12680;57.804;12.190;2023-11-22T01:59:11;2.00;;;1.65;;
24521;SDS011;12680;57.804;12.190;2023-11-22T02:01:39;2.15;;;1.60;;
24521;SDS011;12680;57.804;12.190;2023-11-22T02:04:07;2.47;;;2.03;;
24521;SDS011;12680;57.804;12.190;2023-11-22T02:06:36;4.07;;;1.90;;
24521;SDS011;12680;57.804;12.190;2023-11-22T02:09:03;2.30;;;1.70;;
24521;SDS011;12680;57.804;12.190;2023-11-22T02:11:30;1.92;;;1.70;;
24521;SDS011;12680;57.804;12.190;2023-11-22T02:13:56;1.55;;;1.35;;
24521;SDS011;12680;57.804;12.190;2023-11-22T02:16:23;2.78;;;1.90;;
24521;SDS011;12680;57.804;12.190;2023-11-22T02:18:50;3.15;;;1.77;;
24521;SDS011;12680;57.804;12.190;2023-11-22T02:21:17;2.42;;;1.90;;
24521;SDS011;12680;57.804;12.190;2023-11-22T02:23:44;2.42;;;2.00;;
24521;SDS011;12680;57.804;12.190;2023-11-22T02:26:11;3.58;;;1.90;;
24521;SDS011;12680;57.804;12.190;2023-11-22T02:28:38;2.75;;;1.67;;
24521;SDS011;12680;57.804;12.190;2023-11-22T02:31:05;2.63;;;1.73;;
24521;SDS011;12680;57.804;12.190;2023-11-22T02:33:32;3.95;;;1.77;;
24521;SDS011;12680;57.804;12.190;2023-11-22T02:35:59;1.83;;;1.60;;
24521;SDS011;12680;57.804;12.190;2023-11-22T02:38:28;2.60;;;1.80;;
24521;SDS011;12680;57.804;12.190;2023-11-22T02:40:55;2.90;;;1.98;;
24521;SDS011;12680;57.804;12.190;2023-11-22T02:43:22;2.30;;;1.63;;
24521;SDS011;12680;57.804;12.190;2023-11-22T02:45:49;2.60;;;1.90;;
24521;SDS011;12680;57.804;12.190;2023-11-22T02:48:17;2.45;;;1.70;;
24521;SDS011;12680;57.804;12.190;2023-11-22T02:50:44;3.13;;;2.30;;
24521;SDS011;12680;57.804;12.190;2023-11-22T02:53:11;2.63;;;1.73;;
24521;SDS011;12680;57.804;12.190;2023-11-22T02:55:39;2.53;;;1.98;;
24521;SDS011;12680;57.804;12.190;2023-11-22T02:58:05;2.00;;;1.77;;
24521;SDS011;12680;57.804;12.190;2023-11-22T03:00:32;3.90;;;1.80;;
24521;SDS011;12680;57.804;12.190;2023-11-22T03:03:01;2.20;;;1.67;;
24521;SDS011;12680;57.804;12.190;2023-11-22T03:05:30;2.72;;;1.80;;
24521;SDS011;12680;57.804;12.190;2023-11-22T03:07:57;7.25;;;1.80;;
24521;SDS011;12680;57.804;12.190;2023-11-22T03:10:24;4.03;;;2.38;;
24521;SDS011;12680;57.804;12.190;2023-11-22T03:12:51;3.45;;;1.92;;
24521;SDS011;12680;57.804;12.190;2023-11-22T03:15:18;2.55;;;1.92;;
24521;SDS011;12680;57.804;12.190;2023-11-22T03:17:45;2.47;;;1.85;;
24521;SDS011;12680;57.804;12.190;2023-11-22T03:20:12;2.67;;;1.95;;
24521;SDS011;12680;57.804;12.190;2023-11-22T03:22:39;2.20;;;1.83;;
24521;SDS011;12680;57.804;12.190;2023-11-22T03:25:06;3.20;;;2.03;;
24521;SDS011;12680;57.804;12.190;2023-11-22T03:27:36;2.60;;;1.90;;
24521;SDS011;12680;57.804;12.190;2023-11-22T03:30:04;2.97;;;2.60;;
24521;SDS011;12680;57.804;12.190;2023-11-22T03:32:34;2.85;;;2.20;;
24521;SDS011;12680;57.804;12.190;2023-11-22T03:35:04;2.53;;;2.08;;
24521;SDS011;12680;57.804;12.190;2023-11-22T03:37:32;2.80;;;1.83;;
24521;SDS011;12680;57.804;12.190;2023-11-22T03:39:59;2.95;;;2.10;;
24521;SDS011;12680;57.804;12.190;2023-11-22T03:42:26;5.97;;;2.90;;
24521;SDS011;12680;57.804;12.190;2023-11-22T03:44:54;3.35;;;1.92;;
24521;SDS011;12680;57.804;12.190;2023-11-22T03:47:21;4.63;;;2.05;;
24521;SDS011;12680;57.804;12.190;2023-11-22T03:49:48;2.80;;;1.60;;
24521;SDS011;12680;57.804;12.190;2023-11-22T03:52:15;2.15;;;1.80;;
24521;SDS011;12680;57.804;12.190;2023-11-22T03:54:42;3.75;;;1.98;;
24521;SDS011;12680;57.804;12.190;2023-11-22T03:57:08;2.65;;;1.85;;
24521;SDS011;12680;57.804;12.190;2023-11-22T03:59:35;3.58;;;2.13;;
24521;SDS011;12680;57.804;12.190;2023-11-22T04:02:02;4.70;;;2.38;;
24521;SDS011;12680;57.804;12.190;2023-11-22T04:04:30;3.50;;;2.10;;
24521;SDS011;12680;57.804;12.190;2023-11-22T04:06:57;3.63;;;2.25;;
24521;SDS011;12680;57.804;12.190;2023-11-22T04:09:24;3.28;;;2.22;;
24521;SDS011;12680;57.804;12.190;2023-11-22T04:11:50;2.53;;;1.92;;
24521;SDS011;12680;57.804;12.190;2023-11-22T04:14:18;3.42;;;2.22;;
24521;SDS011;12680;57.804;12.190;2023-11-22T04:16:47;3.90;;;2.00;;
24521;SDS011;12680;57.804;12.190;2023-11-22T04:19:14;3.20;;;2.03;;
24521;SDS011;12680;57.804;12.190;2023-11-22T04:21:41;3.15;;;2.30;;
24521;SDS011;12680;57.804;12.190;2023-11-22T04:24:08;3.80;;;2.42;;
24521;SDS011;12680;57.804;12.190;2023-11-22T04:26:35;5.40;;;2.30;;
24521;SDS011;12680;57.804;12.190;2023-11-22T04:29:03;2.65;;;1.95;;
24521;SDS011;12680;57.804;12.190;2023-11-22T04:31:31;5.47;;;2.58;;
24521;SDS011;12680;57.804;12.190;2023-11-22T04:33:57;3.08;;;1.88;;
24521;SDS011;12680;57.804;12.190;2023-11-22T04:36:26;3.17;;;2.42;;
24521;SDS011;12680;57.804;12.190;2023-11-22T04:38:53;4.07;;;2.40;;
24521;SDS011;12680;57.804;12.190;2023-11-22T04:41:20;3.28;;;2.30;;
24521;SDS011;12680;57.804;12.190;2023-11-22T04:43:51;3.72;;;2.28;;
24521;SDS011;12680;57.804;12.190;2023-11-22T04:46:18;2.95;;;1.98;;
24521;SDS011;12680;57.804;12.190;2023-11-22T04:48:45;2.30;;;1.90;;
24521;SDS011;12680;57.804;12.190;2023-11-22T04:51:14;2.72;;;2.10;;
24521;SDS011;12680;57.804;12.190;2023-11-22T04:53:42;4.45;;;2.13;;
24521;SDS011;12680;57.804;12.190;2023-11-22T04:56:10;4.20;;;2.13;;
24521;SDS011;12680;57.804;12.190;2023-11-22T04:58:37;4.30;;;2.20;;
24521;SDS011;12680;57.804;12.190;2023-11-22T05:01:04;3.83;;;2.78;;
24521;SDS011;12680;57.804;12.190;2023-11-22T05:03:30;5.13;;;2.08;;
24521;SDS011;12680;57.804;12.190;2023-11-22T05:05:58;3.65;;;2.30;;
24521;SDS011;12680;57.804;12.190;2023-11-22T05:08:25;4.30;;;2.60;;
24521;SDS011;12680;57.804;12.190;2023-11-22T05:10:53;5.75;;;2.50;;
24521;SDS011;12680;57.804;12.190;2023-11-22T05:13:22;3.17;;;2.20;;
24521;SDS011;12680;57.804;12.190;2023-11-22T05:15:49;3.20;;;2.00;;
24521;SDS011;12680;57.804;12.190;2023-11-22T05:18:16;4.85;;;2.50;;
24521;SDS011;12680;57.804;12.190;2023-11-22T05:20:43;5.93;;;2.72;;
24521;SDS011;12680;57.804;12.190;2023-11-22T05:23:10;4.60;;;2.33;;
24521;SDS011;12680;57.804;12.190;2023-11-22T05:25:40;3.83;;;2.50;;
24521;SDS011;12680;57.804;12.190;2023-11-22T05:28:06;3.83;;;2.22;;
24521;SDS011;12680;57.804;12.190;2023-11-22T05:30:34;4.35;;;2.55;;
24521;SDS011;12680;57.804;12.190;2023-11-22T05:33:01;3.80;;;2.13;;
24521;SDS011;12680;57.804;12.190;2023-11-22T05:35:28;2.75;;;2.13;;
24521;SDS011;12680;57.804;12.190;2023-11-22T05:37:55;3.38;;;2.00;;
24521;SDS011;12680;57.804;12.190;2023-11-22T05:40:23;3.42;;;2.13;;
24521;SDS011;12680;57.804;12.190;2023-11-22T05:42:50;3.45;;;2.00;;
24521;SDS011;12680;57.804;12.190;2023-11-22T05:45:17;2.67;;;2.00;;
24521;SDS011;12680;57.804;12.190;2023-11-22T05:47:44;3.03;;;2.25;;
24521;SDS011;12680;57.804;12.190;2023-11-22T05:50:11;3.45;;;2.40;;
24521;SDS011;12680;57.804;12.190;2023-11-22T05:52:38;4.07;;;2.40;;
24521;SDS011;12680;57.804;12.190;2023-11-22T05:55:05;4.82;;;2.45;;
24521;SDS011;12680;57.804;12.190;2023-11-22T05:57:34;3.08;;;2.20;;
24521;SDS011;12680;57.804;12.190;2023-11-22T06:00:02;6.88;;;2.30;;
24521;SDS011;12680;57.804;12.190;2023-11-22T06:02:29;4.13;;;2.35;;
24521;SDS011;12680;57.804;12.190;2023-11-22T06:04:56;4.35;;;2.47;;
24521;SDS011;12680;57.804;12.190;2023-11-22T06:07:23;4.35;;;2.38;;
24521;SDS011;12680;57.804;12.190;2023-11-22T06:09:50;5.28;;;2.45;;
24521;SDS011;12680;57.804;12.190;2023-11-22T06:12:17;4.60;;;2.85;;
24521;SDS011;12680;57.804;12.190;2023-11-22T06:14:45;2.92;;;2.20;;
24521;SDS011;12680;57.804;12.190;2023-11-22T06:17:15;4.77;;;2.50;;
24521;SDS011;12680;57.804;12.190;2023-11-22T06:19:42;3.05;;;2.10;;
24521;SDS011;12680;57.804;12.190;2023-11-22T06:22:12;4.32;;;2.45;;
24521;SDS011;12680;57.804;12.190;2023-11-22T06:24:43;3.35;;;2.20;;
24521;SDS011;12680;57.804;12.190;2023-11-22T06:27:09;3.42;;;2.60;;
24521;SDS011;12680;57.804;12.190;2023-11-22T06:29:37;5.60;;;2.67;;
24521;SDS011;12680;57.804;12.190;2023-11-22T06:32:04;3.70;;;1.92;;
24521;SDS011;12680;57.804;12.190;2023-11-22T06:34:32;3.95;;;2.83;;
24521;SDS011;12680;57.804;12.190;2023-11-22T06:37:02;3.45;;;2.40;;
24521;SDS011;12680;57.804;12.190;2023-11-22T06:39:30;5.40;;;2.97;;
24521;SDS011;12680;57.804;12.190;2023-11-22T06:41:57;5.93;;;3.05;;
24521;SDS011;12680;57.804;12.190;2023-11-22T06:44:24;9.75;;;2.83;;
24521;SDS011;12680;57.804;12.190;2023-11-22T06:46:50;4.03;;;2.60;;
24521;SDS011;12680;57.804;12.190;2023-11-22T06:49:18;4.68;;;2.90;;
24521;SDS011;12680;57.804;12.190;2023-11-22T06:51:45;6.30;;;2.78;;
24521;SDS011;12680;57.804;12.190;2023-11-22T06:54:12;4.28;;;2.80;;
24521;SDS011;12680;57.804;12.190;2023-11-22T06:56:39;4.68;;;2.90;;
24521;SDS011;12680;57.804;12.190;2023-11-22T06:59:06;5.53;;;2.88;;
24521;SDS011;12680;57.804;12.190;2023-11-22T07:01:33;4.57;;;3.00;;
24521;SDS011;12680;57.804;12.190;2023-11-22T07:04:00;6.80;;;2.85;;
24521;SDS011;12680;57.804;12.190;2023-11-22T07:06:30;5.00;;;3.10;;
24521;SDS011;12680;57.804;12.190;2023-11-22T07:08:57;5.63;;;2.97;;
24521;SDS011;12680;57.804;12.190;2023-11-22T07:11:24;4.65;;;3.00;;
24521;SDS011;12680;57.804;12.190;2023-11-22T07:13:53;4.55;;;2.83;;
24521;SDS011;12680;57.804;12.190;2023-11-22T07:16:20;5.80;;;3.05;;
24521;SDS011;12680;57.804;12.190;2023-11-22T07:18:47;7.63;;;3.30;;
24521;SDS011;12680;57.804;12.190;2023-11-22T07:21:14;5.28;;;3.08;;
24521;SDS011;12680;57.804;12.190;2023-11-22T07:23:40;6.38;;;3.53;;
24521;SDS011;12680;57.804;12.190;2023-11-22T07:26:07;3.15;;;2.50;;
24521;SDS011;12680;57.804;12.190;2023-11-22T07:28:34;5.10;;;3.10;;
24521;SDS011;12680;57.804;12.190;2023-11-22T07:31:06;5.05;;;3.03;;
24521;SDS011;12680;57.804;12.190;2023-11-22T07:33:34;5.78;;;3.03;;
24521;SDS011;12680;57.804;12.190;2023-11-22T07:36:01;5.18;;;3.08;;
24521;SDS011;12680;57.804;12.190;2023-11-22T07:38:29;4.90;;;3.10;;
24521;SDS011;12680;57.804;12.190;2023-11-22T07:40:57;5.10;;;3.22;;
24521;SDS011;12680;57.804;12.190;2023-11-22T07:43:24;4.88;;;3.08;;
24521;SDS011;12680;57.804;12.190;2023-11-22T07:45:51;6.53;;;3.10;;
24521;SDS011;12680;57.804;12.190;2023-11-22T07:48:18;5.95;;;3.15;;
24521;SDS011;12680;57.804;12.190;2023-11-22T07:50:45;7.15;;;3.13;;
24521;SDS011;12680;57.804;12.190;2023-11-22T07:53:15;6.80;;;3.35;;
24521;SDS011;12680;57.804;12.190;2023-11-22T07:55:44;5.57;;;2.75;;
24521;SDS011;12680;57.804;12.190;2023-11-22T07:58:11;6.03;;;2.67;;
24521;SDS011;12680;57.804;12.190;2023-11-22T08:00:37;6.10;;;3.28;;
24521;SDS011;12680;57.804;12.190;2023-11-22T08:03:04;6.10;;;3.10;;
24521;SDS011;12680;57.804;12.190;2023-11-22T08:05:33;4.47;;;2.63;;
24521;SDS011;12680;57.804;12.190;2023-11-22T08:08:03;6.55;;;2.95;;
24521;SDS011;12680;57.804;12.190;2023-11-22T08:10:34;8.73;;;2.60;;
24521;SDS011;12680;57.804;12.190;2023-11-22T08:13:02;6.07;;;2.55;;
24521;SDS011;12680;57.804;12.190;2023-11-22T08:15:30;3.60;;;2.70;;
24521;SDS011;12680;57.804;12.190;2023-11-22T08:18:00;3.72;;;2.58;;
24521;SDS011;12680;57.804;12.190;2023-11-22T08:20:27;4.43;;;2.40;;
24521;SDS011;12680;57.804;12.190;2023-11-22T08:22:56;5.18;;;2.38;;
24521;SDS011;12680;57.804;12.190;2023-11-22T08:25:23;3.80;;;2.33;;
24521;SDS011;12680;57.804;12.190;2023-11-22T08:27:50;6.07;;;2.80;;
24521;SDS011;12680;57.804;12.190;2023-11-22T08:30:17;4.40;;;2.50;;
24521;SDS011;12680;57.804;12.190;2023-11-22T08:32:45;3.75;;;2.28;;
24521;SDS011;12680;57.804;12.190;2023-11-22T08:35:21;4.53;;;2.45;;
24521;SDS011;12680;57.804;12.190;2023-11-22T08:37:48;3.72;;;2.30;;
24521;SDS011;12680;57.804;12.190;2023-11-22T08:40:16;5.22;;;2.20;;
24521;SDS011;12680;57.804;12.190;2023-11-22T08:42:47;7.53;;;2.22;;
24521;SDS011;12680;57.804;12.190;2023-11-22T08:45:14;3.95;;;2.20;;
24521;SDS011;12680;57.804;12.190;2023-11-22T08:47:41;6.97;;;1.98;;
24521;SDS011;12680;57.804;12.190;2023-11-22T08:50:09;3.97;;;1.65;;
24521;SDS011;12680;57.804;12.190;2023-11-22T08:52:39;3.40;;;2.20;;
24521;SDS011;12680;57.804;12.190;2023-11-22T08:55:08;3.63;;;2.13;;
24521;SDS011;12680;57.804;12.190;2023-11-22T08:57:36;4.30;;;2.17;;
24521;SDS011;12680;57.804;12.190;2023-11-22T09:00:07;5.22;;;2.10;;
24521;SDS011;12680;57.804;12.190;2023-11-22T09:02:36;5.28;;;2.28;;
24521;SDS011;12680;57.804;12.190;2023-11-22T09:05:04;5.05;;;1.85;;
24521;SDS011;12680;57.804;12.190;2023-11-22T09:07:35;7.10;;;2.42;;
24521;SDS011;12680;57.804;12.190;2023-11-22T09:10:03;4.75;;;2.17;;
24521;SDS011;12680;57.804;12.190;2023-11-22T09:12:37;3.80;;;2.25;;
24521;SDS011;12680;57.804;12.190;2023-11-22T09:15:10;8.20;;;2.70;;
24521;SDS011;12680;57.804;12.190;2023-11-22T09:17:40;3.63;;;1.85;;
24521;SDS011;12680;57.804;12.190;2023-11-22T09:20:13;7.10;;;2.20;;
24521;SDS011;12680;57.804;12.190;2023-11-22T09:22:51;6.93;;;2.10;;
24521;SDS011;12680;57.804;12.190;2023-11-22T09:25:21;5.65;;;1.90;;
24521;SDS011;12680;57.804;12.190;2023-11-22T09:27:52;3.80;;;2.25;;
24521;SDS011;12680;57.804;12.190;2023-11-22T09:30:26;3.90;;;1.95;;
24521;SDS011;12680;57.804;12.190;2023-11-22T09:33:06;6.75;;;2.00;;
24521;SDS011;12680;57.804;12.190;2023-11-22T09:35:34;5.85;;;2.20;;
24521;SDS011;12680;57.804;12.190;2023-11-22T09:38:02;5.68;;;2.13;;
24521;SDS011;12680;57.804;12.190;2023-11-22T09:40:40;6.53;;;2.58;;
24521;SDS011;12680;57.804;12.190;2023-11-22T09:43:16;5.57;;;2.25;;
24521;SDS011;12680;57.804;12.190;2023-11-22T09:45:47;7.75;;;2.50;;
24521;SDS011;12680;57.804;12.190;2023-11-22T09:48:21;5.97;;;2.15;;
24521;SDS011;12680;57.804;12.190;2023-11-22T09:56:11;10.68;;;2.50;;
24521;SDS011;12680;57.804;12.190;2023-11-22T09:58:41;6.07;;;2.60;;
24521;SDS011;12680;57.804;12.190;2023-11-22T10:01:11;3.35;;;2.00;;
24521;SDS011;12680;57.804;12.190;2023-11-22T10:03:39;8.32;;;1.92;;
24521;SDS011;12680;57.804;12.190;2023-11-22T10:06:07;7.90;;;1.88;;
24521;SDS011;12680;57.804;12.190;2023-11-22T10:08:34;5.13;;;2.20;;
24521;SDS011;12680;57.804;12.190;2023-11-22T10:11:03;6.65;;;2.63;;
24521;SDS011;12680;57.804;12.190;2023-11-22T10:13:30;8.10;;;2.33;;
24521;SDS011;12680;57.804;12.190;2023-11-22T10:15:59;5.03;;;2.33;;
24521;SDS011;12680;57.804;12.190;2023-11-22T10:18:42;5.53;;;1.83;;
24521;SDS011;12680;57.804;12.190;2023-11-22T10:21:23;7.18;;;2.03;;
24521;SDS011;12680;57.804;12.190;2023-11-22T10:23:55;7.47;;;2.35;;
24521;SDS011;12680;57.804;12.190;2023-11-22T10:26:24;9.88;;;2.53;;
24521;SDS011;12680;57.804;12.190;2023-11-22T10:28:54;4.50;;;2.10;;
24521;SDS011;12680;57.804;12.190;2023-11-22T10:31:22;9.88;;;1.98;;
24521;SDS011;12680;57.804;12.190;2023-11-22T10:33:50;6.97;;;2.20;;
24521;SDS011;12680;57.804;12.190;2023-11-22T10:36:17;5.10;;;1.90;;
24521;SDS011;12680;57.804;12.190;2023-11-22T10:38:47;11.10;;;2.67;;
24521;SDS011;12680;57.804;12.190;2023-11-22T10:41:14;10.00;;;2.17;;
24521;SDS011;12680;57.804;12.190;2023-11-22T10:43:42;4.63;;;2.05;;
24521;SDS011;12680;57.804;12.190;2023-11-22T10:46:12;3.20;;;1.75;;
24521;SDS011;12680;57.804;12.190;2023-11-22T10:48:40;6.18;;;2.08;;
24521;SDS011;12680;57.804;12.190;2023-11-22T10:51:08;3.63;;;1.50;;
24521;SDS011;12680;57.804;12.190;2023-11-22T10:56:12;9.45;;;2.45;;
24521;SDS011;12680;57.804;12.190;2023-11-22T10:58:49;5.28;;;2.17;;
24521;SDS011;12680;57.804;12.190;2023-11-22T11:01:17;5.93;;;1.83;;
24521;SDS011;12680;57.804;12.190;2023-11-22T11:03:51;7.25;;;2.28;;
24521;SDS011;12680;57.804;12.190;2023-11-22T11:06:28;6.78;;;2.28;;
24521;SDS011;12680;57.804;12.190;2023-11-22T11:09:00;7.07;;;1.98;;
24521;SDS011;12680;57.804;12.190;2023-11-22T11:11:32;5.00;;;2.00;;
24521;SDS011;12680;57.804;12.190;2023-11-22T11:14:01;5.47;;;2.35;;
24521;SDS011;12680;57.804;12.190;2023-11-22T11:16:33;6.68;;;2.22;;
24521;SDS011;12680;57.804;12.190;2023-11-22T11:19:16;5.05;;;1.60;;
24521;SDS011;12680;57.804;12.190;2023-11-22T11:21:44;8.65;;;2.45;;
24521;SDS011;12680;57.804;12.190;2023-11-22T11:24:11;5.28;;;1.98;;
24521;SDS011;12680;57.804;12.190;2023-11-22T11:26:38;8.40;;;2.20;;
24521;SDS011;12680;57.804;12.190;2023-11-22T11:29:05;6.22;;;1.77;;
24521;SDS011;12680;57.804;12.190;2023-11-22T11:31:38;4.45;;;1.67;;
24521;SDS011;12680;57.804;12.190;2023-11-22T11:34:06;5.00;;;1.83;;
24521;SDS011;12680;57.804;12.190;2023-11-22T11:36:36;6.88;;;1.95;;
24521;SDS011;12680;57.804;12.190;2023-11-22T11:39:07;9.32;;;2.20;;
24521;SDS011;12680;57.804;12.190;2023-11-22T11:41:42;6.53;;;1.70;;
24521;SDS011;12680;57.804;12.190;2023-11-22T11:44:09;8.98;;;2.40;;
24521;SDS011;12680;57.804;12.190;2023-11-22T11:46:38;7.30;;;1.63;;
24521;SDS011;12680;57.804;12.190;2023-11-22T11:49:07;10.73;;;2.10;;
24521;SDS011;12680;57.804;12.190;2023-11-22T11:51:35;9.73;;;2.08;;
24521;SDS011;12680;57.804;12.190;2023-11-22T11:54:03;4.68;;;1.98;;
24521;SDS011;12680;57.804;12.190;2023-11-22T11:56:33;10.02;;;2.45;;
24521;SDS011;12680;57.804;12.190;2023-11-22T11:59:00;8.05;;;2.22;;
24521;SDS011;12680;57.804;12.190;2023-11-22T12:01:28;12.18;;;2.50;;
24521;SDS011;12680;57.804;12.190;2023-11-22T12:04:02;10.00;;;2.28;;
24521;SDS011;12680;57.804;12.190;2023-11-22T12:06:32;8.38;;;2.38;;
24521;SDS011;12680;57.804;12.190;2023-11-22T12:09:02;6.28;;;2.15;;
24521;SDS011;12680;57.804;12.190;2023-11-22T12:11:30;9.77;;;2.38;;
24521;SDS011;12680;57.804;12.190;2023-11-22T12:13:57;6.03;;;1.70;;
24521;SDS011;12680;57.804;12.190;2023-11-22T12:16:25;8.68;;;2.30;;
24521;SDS011;12680;57.804;12.190;2023-11-22T12:18:53;4.32;;;1.77;;
24521;SDS011;12680;57.804;12.190;2023-11-22T12:21:21;7.07;;;2.38;;
24521;SDS011;12680;57.804;12.190;2023-11-22T12:23:48;9.32;;;2.28;;
24521;SDS011;12680;57.804;12.190;2023-11-22T12:26:16;7.00;;;1.65;;
24521;SDS011;12680;57.804;12.190;2023-11-22T12:28:46;8.02;;;2.05;;
24521;SDS011;12680;57.804;12.190;2023-11-22T12:31:29;9.70;;;2.05;;
24521;SDS011;12680;57.804;12.190;2023-11-22T12:34:02;7.78;;;1.88;;
24521;SDS011;12680;57.804;12.190;2023-11-22T12:36:29;9.48;;;2.70;;
24521;SDS011;12680;57.804;12.190;2023-11-22T12:38:56;9.00;;;2.15;;
24521;SDS011;12680;57.804;12.190;2023-11-22T12:41:26;10.13;;;2.20;;
24521;SDS011;12680;57.804;12.190;2023-11-22T12:44:05;7.28;;;2.25;;
24521;SDS011;12680;57.804;12.190;2023-11-22T12:49:23;14.85;;;2.75;;
24521;SDS011;12680;57.804;12.190;2023-11-22T12:51:54;9.93;;;2.20;;
24521;SDS011;12680;57.804;12.190;2023-11-22T12:54:23;9.73;;;2.17;;
24521;SDS011;12680;57.804;12.190;2023-11-22T12:56:53;9.38;;;2.55;;
24521;SDS011;12680;57.804;12.190;2023-11-22T12:59:25;13.57;;;3.20;;
24521;SDS011;12680;57.804;12.190;2023-11-22T13:01:57;10.63;;;3.95;;
24521;SDS011;12680;57.804;12.190;2023-11-22T13:04:27;8.43;;;2.22;;
24521;SDS011;12680;57.804;12.190;2023-11-22T13:06:56;12.10;;;3.10;;
24521;SDS011;12680;57.804;12.190;2023-11-22T13:09:24;5.15;;;2.38;;
24521;SDS011;12680;57.804;12.190;2023-11-22T13:11:51;12.60;;;2.20;;
24521;SDS011;12680;57.804;12.190;2023-11-22T13:14:18;13.93;;;3.50;;
24521;SDS011;12680;57.804;12.190;2023-11-22T13:16:45;11.75;;;2.45;;
24521;SDS011;12680;57.804;12.190;2023-11-22T13:19:12;14.45;;;2.90;;
24521;SDS011;12680;57.804;12.190;2023-11-22T13:21:39;12.13;;;3.05;;
24521;SDS011;12680;57.804;12.190;2023-11-22T13:24:09;8.90;;;3.03;;
24521;SDS011;12680;57.804;12.190;2023-11-22T13:26:37;12.85;;;2.70;;
24521;SDS011;12680;57.804;12.190;2023-11-22T13:29:04;22.83;;;9.38;;
24521;SDS011;12680;57.804;12.190;2023-11-22T13:31:31;11.90;;;2.85;;
24521;SDS011;12680;57.804;12.190;2023-11-22T13:33:57;11.20;;;3.25;;
24521;SDS011;12680;57.804;12.190;2023-11-22T13:36:24;12.43;;;2.53;;
24521;SDS011;12680;57.804;12.190;2023-11-22T13:38:51;8.20;;;3.00;;
24521;SDS011;12680;57.804;12.190;2023-11-22T13:41:18;8.75;;;2.75;;
24521;SDS011;12680;57.804;12.190;2023-11-22T13:43:46;11.88;;;3.10;;
24521;SDS011;12680;57.804;12.190;2023-11-22T13:46:16;10.82;;;2.75;;
24521;SDS011;12680;57.804;12.190;2023-11-22T13:48:43;17.55;;;3.55;;
24521;SDS011;12680;57.804;12.190;2023-11-22T13:51:13;11.13;;;3.35;;
24521;SDS011;12680;57.804;12.190;2023-11-22T13:53:40;14.07;;;3.15;;
24521;SDS011;12680;57.804;12.190;2023-11-22T13:56:10;10.73;;;3.33;;
24521;SDS011;12680;57.804;12.190;2023-11-22T13:58:39;8.95;;;3.03;;
24521;SDS011;12680;57.804;12.190;2023-11-22T14:01:06;6.93;;;2.80;;
24521;SDS011;12680;57.804;12.190;2023-11-22T14:03:40;12.15;;;3.72;;
24521;SDS011;12680;57.804;12.190;2023-11-22T14:06:11;6.32;;;3.03;;
24521;SDS011;12680;57.804;12.190;2023-11-22T14:08:42;9.60;;;3.50;;
24521;SDS011;12680;57.804;12.190;2023-11-22T14:11:12;5.63;;;2.30;;
24521;SDS011;12680;57.804;12.190;2023-11-22T14:13:39;13.57;;;3.67;;
24521;SDS011;12680;57.804;12.190;2023-11-22T14:16:06;11.13;;;3.30;;
24521;SDS011;12680;57.804;12.190;2023-11-22T14:18:35;12.15;;;3.10;;
24521;SDS011;12680;57.804;12.190;2023-11-22T14:21:02;10.18;;;2.97;;
24521;SDS011;12680;57.804;12.190;2023-11-22T14:23:30;9.02;;;2.78;;
24521;SDS011;12680;57.804;12.190;2023-11-22T14:26:00;14.52;;;4.28;;
24521;SDS011;12680;57.804;12.190;2023-11-22T14:28:28;12.45;;;3.72;;
24521;SDS011;12680;57.804;12.190;2023-11-22T14:30:55;11.18;;;3.38;;
24521;SDS011;12680;57.804;12.190;2023-11-22T14:33:22;9.55;;;3.50;;
24521;SDS011;12680;57.804;12.190;2023-11-22T14:35:49;10.65;;;2.97;;
24521;SDS011;12680;57.804;12.190;2023-11-22T14:38:16;12.07;;;3.40;;
24521;SDS011;12680;57.804;12.190;2023-11-22T14:40:44;8.90;;;3.42;;
24521;SDS011;12680;57.804;12.190;2023-11-22T14:43:12;10.25;;;3.10;;
24521;SDS011;12680;57.804;12.190;2023-11-22T14:45:40;9.20;;;3.25;;
24521;SDS011;12680;57.804;12.190;2023-11-22T14:48:07;14.57;;;3.65;;
24521;SDS011;12680;57.804;12.190;2023-11-22T14:50:35;9.10;;;3.00;;